sensor_id;sensor_type;location;lat;lon;timestamp;temperature;humidity
37646;DHT22;23489;49.600;6.138;2024-01-06T00:01:41;4.50;99.90
37646;DHT22;23489;49.600;6.138;2024-01-06T00:04:06;4.50;99.90
37646;DHT22;23489;49.600;6.138;2024-01-06T00:06:32;4.50;99.90
37646;DHT22;23489;49.600;6.138;2024-01-06T00:08:58;4.50;99.90
37646;DHT22;23489;49.600;6.138;2024-01-06T00:11:23;4.50;99.90
37646;DHT22;23489;49.600;6.138;2024-01-06T00:13:49;4.50;99.90
37646;DHT22;23489;49.600;6.138;2024-01-06T00:16:19;4.50;99.90
37646;DHT22;23489;49.600;6.138;2024-01-06T00:18:45;4.50;99.90
37646;DHT22;23489;49.600;6.138;2024-01-06T00:21:11;4.50;99.90
37646;DHT22;23489;49.600;6.138;2024-01-06T00:23:37;4.50;99.90
37646;DHT22;23489;49.600;6.138;2024-01-06T00:26:03;4.50;99.90
37646;DHT22;23489;49.600;6.138;2024-01-06T00:28:29;4.50;99.90
37646;DHT22;23489;49.600;6.138;2024-01-06T00:30:55;4.50;99.90
37646;DHT22;23489;49.600;6.138;2024-01-06T00:33:21;4.40;99.90
37646;DHT22;23489;49.600;6.138;2024-01-06T00:35:47;4.40;99.90
37646;DHT22;23489;49.600;6.138;2024-01-06T00:38:12;4.40;99.90
37646;DHT22;23489;49.600;6.138;2024-01-06T00:40:38;4.40;99.90
37646;DHT22;23489;49.600;6.138;2024-01-06T00:43:04;4.40;99.90
37646;DHT22;23489;49.600;6.138;2024-01-06T00:45:30;4.30;99.90
37646;DHT22;23489;49.600;6.138;2024-01-06T00:47:57;4.30;99.90
37646;DHT22;23489;49.600;6.138;2024-01-06T00:50:23;4.40;99.90
37646;DHT22;23489;49.600;6.138;2024-01-06T00:52:48;4.40;99.90
37646;DHT22;23489;49.600;6.138;2024-01-06T00:55:18;4.50;99.90
37646;DHT22;23489;49.600;6.138;2024-01-06T00:57:44;4.50;99.90
37646;DHT22;23489;49.600;6.138;2024-01-06T01:00:10;4.50;99.90
37646;DHT22;23489;49.600;6.138;2024-01-06T01:02:36;4.50;99.90
37646;DHT22;23489;49.600;6.138;2024-01-06T01:05:02;4.50;99.90
37646;DHT22;23489;49.600;6.138;2024-01-06T01:07:28;4.50;99.90
37646;DHT22;23489;49.600;6.138;2024-01-06T01:09:53;4.60;99.90
37646;DHT22;23489;49.600;6.138;2024-01-06T01:12:19;4.60;99.90
37646;DHT22;23489;49.600;6.138;2024-01-06T01:14:45;4.60;99.90
37646;DHT22;23489;49.600;6.138;2024-01-06T01:17:10;4.70;99.90
37646;DHT22;23489;49.600;6.138;2024-01-06T01:19:36;4.70;99.90
37646;DHT22;23489;49.600;6.138;2024-01-06T01:22:01;4.70;99.90
37646;DHT22;23489;49.600;6.138;2024-01-06T01:24:27;4.80;99.90
37646;DHT22;23489;49.600;6.138;2024-01-06T01:26:53;4.80;99.90
37646;DHT22;23489;49.600;6.138;2024-01-06T01:29:18;4.80;99.90
37646;DHT22;23489;49.600;6.138;2024-01-06T01:31:46;4.80;99.90
37646;DHT22;23489;49.600;6.138;2024-01-06T01:34:12;4.80;99.90
37646;DHT22;23489;49.600;6.138;2024-01-06T01:36:38;4.70;99.90
37646;DHT22;23489;49.600;6.138;2024-01-06T01:39:04;4.80;99.90
37646;DHT22;23489;49.600;6.138;2024-01-06T01:41:30;4.80;99.90
37646;DHT22;23489;49.600;6.138;2024-01-06T01:43:55;4.80;99.90
37646;DHT22;23489;49.600;6.138;2024-01-06T01:46:28;4.70;99.90
37646;DHT22;23489;49.600;6.138;2024-01-06T01:48:58;4.80;99.90
37646;DHT22;23489;49.600;6.138;2024-01-06T01:51:28;4.80;99.90
37646;DHT22;23489;49.600;6.138;2024-01-06T01:53:55;4.70;99.90
37646;DHT22;23489;49.600;6.138;2024-01-06T01:56:21;4.70;99.90
37646;DHT22;23489;49.600;6.138;2024-01-06T01:58:47;4.70;99.90
37646;DHT22;23489;49.600;6.138;2024-01-06T02:01:13;4.70;99.90
37646;DHT22;23489;49.600;6.138;2024-01-06T02:03:41;4.60;99.90
37646;DHT22;23489;49.600;6.138;2024-01-06T02:06:10;4.70;99.90
37646;DHT22;23489;49.600;6.138;2024-01-06T02:08:36;4.70;99.90
37646;DHT22;23489;49.600;6.138;2024-01-06T02:11:03;4.70;99.90
37646;DHT22;23489;49.600;6.138;2024-01-06T02:13:36;4.70;99.90
37646;DHT22;23489;49.600;6.138;2024-01-06T02:16:03;4.70;99.90
37646;DHT22;23489;49.600;6.138;2024-01-06T02:18:33;4.70;99.90
37646;DHT22;23489;49.600;6.138;2024-01-06T02:21:00;4.70;99.90
37646;DHT22;23489;49.600;6.138;2024-01-06T02:23:30;4.60;99.90
37646;DHT22;23489;49.600;6.138;2024-01-06T02:25:56;4.60;99.90
37646;DHT22;23489;49.600;6.138;2024-01-06T02:28:22;4.60;99.90
37646;DHT22;23489;49.600;6.138;2024-01-06T02:30:47;4.70;99.90
37646;DHT22;23489;49.600;6.138;2024-01-06T02:33:13;4.70;99.90
37646;DHT22;23489;49.600;6.138;2024-01-06T02:35:39;4.70;99.90
37646;DHT22;23489;49.600;6.138;2024-01-06T02:38:06;4.70;99.90
37646;DHT22;23489;49.600;6.138;2024-01-06T02:40:32;4.70;99.90
37646;DHT22;23489;49.600;6.138;2024-01-06T02:42:58;4.70;99.90
37646;DHT22;23489;49.600;6.138;2024-01-06T02:45:24;4.80;99.90
37646;DHT22;23489;49.600;6.138;2024-01-06T02:47:50;4.80;99.90
37646;DHT22;23489;49.600;6.138;2024-01-06T02:50:16;4.80;99.90
37646;DHT22;23489;49.600;6.138;2024-01-06T02:52:41;4.80;99.90
37646;DHT22;23489;49.600;6.138;2024-01-06T02:55:07;4.80;99.90
37646;DHT22;23489;49.600;6.138;2024-01-06T02:57:32;4.80;99.90
37646;DHT22;23489;49.600;6.138;2024-01-06T02:59:58;4.80;99.90
37646;DHT22;23489;49.600;6.138;2024-01-06T03:02:24;4.80;99.90
37646;DHT22;23489;49.600;6.138;2024-01-06T03:04:49;4.80;99.90
37646;DHT22;23489;49.600;6.138;2024-01-06T03:07:15;4.80;99.90
37646;DHT22;23489;49.600;6.138;2024-01-06T03:09:41;4.80;99.90
37646;DHT22;23489;49.600;6.138;2024-01-06T03:12:07;4.80;99.90
37646;DHT22;23489;49.600;6.138;2024-01-06T03:14:36;4.80;99.90
37646;DHT22;23489;49.600;6.138;2024-01-06T03:17:02;4.80;99.90
37646;DHT22;23489;49.600;6.138;2024-01-06T03:19:29;4.90;99.90
37646;DHT22;23489;49.600;6.138;2024-01-06T03:21:54;4.90;99.90
37646;DHT22;23489;49.600;6.138;2024-01-06T03:24:22;4.80;99.90
37646;DHT22;23489;49.600;6.138;2024-01-06T03:26:48;4.80;99.90
37646;DHT22;23489;49.600;6.138;2024-01-06T03:29:13;4.90;99.90
37646;DHT22;23489;49.600;6.138;2024-01-06T03:31:46;4.90;99.90
37646;DHT22;23489;49.600;6.138;2024-01-06T03:34:12;4.90;99.90
37646;DHT22;23489;49.600;6.138;2024-01-06T03:36:38;4.90;99.90
37646;DHT22;23489;49.600;6.138;2024-01-06T03:39:04;4.90;99.90
37646;DHT22;23489;49.600;6.138;2024-01-06T03:41:30;4.90;99.90
37646;DHT22;23489;49.600;6.138;2024-01-06T03:43:56;4.80;99.90
37646;DHT22;23489;49.600;6.138;2024-01-06T03:46:22;4.80;99.90
37646;DHT22;23489;49.600;6.138;2024-01-06T03:48:48;4.80;99.90
37646;DHT22;23489;49.600;6.138;2024-01-06T03:51:13;4.80;99.90
37646;DHT22;23489;49.600;6.138;2024-01-06T03:53:39;4.90;99.90
37646;DHT22;23489;49.600;6.138;2024-01-06T03:56:06;4.80;99.90
37646;DHT22;23489;49.600;6.138;2024-01-06T03:58:32;4.80;99.90
37646;DHT22;23489;49.600;6.138;2024-01-06T04:00:58;4.80;99.90
37646;DHT22;23489;49.600;6.138;2024-01-06T04:03:24;4.80;99.90
37646;DHT22;23489;49.600;6.138;2024-01-06T04:05:49;4.80;99.90
37646;DHT22;23489;49.600;6.138;2024-01-06T04:08:15;4.80;99.90
37646;DHT22;23489;49.600;6.138;2024-01-06T04:10:41;4.80;99.90
37646;DHT22;23489;49.600;6.138;2024-01-06T04:13:07;4.80;99.90
37646;DHT22;23489;49.600;6.138;2024-01-06T04:15:33;4.80;99.90
37646;DHT22;23489;49.600;6.138;2024-01-06T04:18:02;4.90;99.90
37646;DHT22;23489;49.600;6.138;2024-01-06T04:20:29;4.90;99.90
37646;DHT22;23489;49.600;6.138;2024-01-06T04:22:54;4.90;99.90
37646;DHT22;23489;49.600;6.138;2024-01-06T04:25:20;4.90;99.90
37646;DHT22;23489;49.600;6.138;2024-01-06T04:27:47;4.90;99.90
37646;DHT22;23489;49.600;6.138;2024-01-06T04:30:14;4.90;99.90
37646;DHT22;23489;49.600;6.138;2024-01-06T04:32:40;4.90;99.90
37646;DHT22;23489;49.600;6.138;2024-01-06T04:35:06;4.90;99.90
37646;DHT22;23489;49.600;6.138;2024-01-06T04:37:32;4.90;99.90
37646;DHT22;23489;49.600;6.138;2024-01-06T04:39:58;4.90;99.90
37646;DHT22;23489;49.600;6.138;2024-01-06T04:42:23;4.90;99.90
37646;DHT22;23489;49.600;6.138;2024-01-06T04:44:50;4.90;99.90
37646;DHT22;23489;49.600;6.138;2024-01-06T04:47:16;4.90;99.90
37646;DHT22;23489;49.600;6.138;2024-01-06T04:49:42;4.90;99.90
37646;DHT22;23489;49.600;6.138;2024-01-06T04:52:07;4.90;99.90
37646;DHT22;23489;49.600;6.138;2024-01-06T04:54:33;4.90;99.90
37646;DHT22;23489;49.600;6.138;2024-01-06T04:56:59;4.90;99.90
37646;DHT22;23489;49.600;6.138;2024-01-06T04:59:25;4.90;99.90
37646;DHT22;23489;49.600;6.138;2024-01-06T05:01:53;4.90;99.90
37646;DHT22;23489;49.600;6.138;2024-01-06T05:04:19;4.90;99.90
37646;DHT22;23489;49.600;6.138;2024-01-06T05:06:45;4.80;99.90
37646;DHT22;23489;49.600;6.138;2024-01-06T05:09:10;4.80;99.90
37646;DHT22;23489;49.600;6.138;2024-01-06T05:11:36;4.90;99.90
37646;DHT22;23489;49.600;6.138;2024-01-06T05:14:02;4.90;99.90
37646;DHT22;23489;49.600;6.138;2024-01-06T05:16:28;4.90;99.90
37646;DHT22;23489;49.600;6.138;2024-01-06T05:18:53;4.90;99.90
37646;DHT22;23489;49.600;6.138;2024-01-06T05:21:20;5.00;99.90
37646;DHT22;23489;49.600;6.138;2024-01-06T05:23:45;5.00;99.90
37646;DHT22;23489;49.600;6.138;2024-01-06T05:26:11;5.00;99.90
37646;DHT22;23489;49.600;6.138;2024-01-06T05:28:39;4.90;99.90
37646;DHT22;23489;49.600;6.138;2024-01-06T05:31:05;4.90;99.90
37646;DHT22;23489;49.600;6.138;2024-01-06T05:33:30;4.90;99.90
37646;DHT22;23489;49.600;6.138;2024-01-06T05:35:56;4.80;99.90
37646;DHT22;23489;49.600;6.138;2024-01-06T05:38:21;4.80;99.90
37646;DHT22;23489;49.600;6.138;2024-01-06T05:40:47;4.80;99.90
37646;DHT22;23489;49.600;6.138;2024-01-06T05:43:13;4.80;99.90
37646;DHT22;23489;49.600;6.138;2024-01-06T05:45:39;4.70;99.90
37646;DHT22;23489;49.600;6.138;2024-01-06T05:48:11;4.70;99.90
37646;DHT22;23489;49.600;6.138;2024-01-06T05:50:39;4.70;99.90
37646;DHT22;23489;49.600;6.138;2024-01-06T05:53:06;4.70;99.90
37646;DHT22;23489;49.600;6.138;2024-01-06T05:55:33;4.70;99.90
37646;DHT22;23489;49.600;6.138;2024-01-06T05:57:58;4.70;99.90
37646;DHT22;23489;49.600;6.138;2024-01-06T06:00:24;4.70;99.90
37646;DHT22;23489;49.600;6.138;2024-01-06T06:02:50;4.70;99.90
37646;DHT22;23489;49.600;6.138;2024-01-06T06:05:15;4.70;99.90
37646;DHT22;23489;49.600;6.138;2024-01-06T06:07:41;4.70;99.90
37646;DHT22;23489;49.600;6.138;2024-01-06T06:10:09;4.70;99.90
37646;DHT22;23489;49.600;6.138;2024-01-06T06:12:36;4.80;99.90
37646;DHT22;23489;49.600;6.138;2024-01-06T06:15:02;4.80;99.90
37646;DHT22;23489;49.600;6.138;2024-01-06T06:17:30;4.80;99.90
37646;DHT22;23489;49.600;6.138;2024-01-06T06:19:57;4.90;99.90
37646;DHT22;23489;49.600;6.138;2024-01-06T06:22:23;4.90;99.90
37646;DHT22;23489;49.600;6.138;2024-01-06T06:24:48;4.90;99.90
37646;DHT22;23489;49.600;6.138;2024-01-06T06:27:14;4.90;99.90
37646;DHT22;23489;49.600;6.138;2024-01-06T06:29:40;4.90;99.90
37646;DHT22;23489;49.600;6.138;2024-01-06T06:32:05;5.00;99.90
37646;DHT22;23489;49.600;6.138;2024-01-06T06:34:31;4.90;99.90
37646;DHT22;23489;49.600;6.138;2024-01-06T06:36:56;5.00;99.90
37646;DHT22;23489;49.600;6.138;2024-01-06T06:39:24;4.90;99.90
37646;DHT22;23489;49.600;6.138;2024-01-06T06:41:49;5.00;99.90
37646;DHT22;23489;49.600;6.138;2024-01-06T06:44:15;5.00;99.90
37646;DHT22;23489;49.600;6.138;2024-01-06T06:46:41;5.00;99.90
37646;DHT22;23489;49.600;6.138;2024-01-06T06:49:06;5.10;99.90
37646;DHT22;23489;49.600;6.138;2024-01-06T06:51:32;5.10;99.90
37646;DHT22;23489;49.600;6.138;2024-01-06T06:53:58;5.10;99.90
37646;DHT22;23489;49.600;6.138;2024-01-06T06:56:24;5.10;99.90
37646;DHT22;23489;49.600;6.138;2024-01-06T06:58:49;5.10;99.90
37646;DHT22;23489;49.600;6.138;2024-01-06T07:01:15;5.10;99.90
37646;DHT22;23489;49.600;6.138;2024-01-06T07:03:41;5.20;99.90
37646;DHT22;23489;49.600;6.138;2024-01-06T07:06:07;5.20;99.90
37646;DHT22;23489;49.600;6.138;2024-01-06T07:08:32;5.20;99.90
37646;DHT22;23489;49.600;6.138;2024-01-06T07:10:58;5.10;99.90
37646;DHT22;23489;49.600;6.138;2024-01-06T07:13:23;5.10;99.90
37646;DHT22;23489;49.600;6.138;2024-01-06T07:15:49;5.20;99.90
37646;DHT22;23489;49.600;6.138;2024-01-06T07:18:15;5.10;99.90
37646;DHT22;23489;49.600;6.138;2024-01-06T07:20:41;5.10;99.90
37646;DHT22;23489;49.600;6.138;2024-01-06T07:23:06;5.10;99.90
37646;DHT22;23489;49.600;6.138;2024-01-06T07:25:32;5.10;99.90
37646;DHT22;23489;49.600;6.138;2024-01-06T07:27:58;5.20;99.90
37646;DHT22;23489;49.600;6.138;2024-01-06T07:30:23;5.20;99.90
37646;DHT22;23489;49.600;6.138;2024-01-06T07:32:49;5.20;99.90
37646;DHT22;23489;49.600;6.138;2024-01-06T07:35:17;5.30;99.90
37646;DHT22;23489;49.600;6.138;2024-01-06T07:37:43;5.30;99.90
37646;DHT22;23489;49.600;6.138;2024-01-06T07:40:09;5.30;99.90
37646;DHT22;23489;49.600;6.138;2024-01-06T07:42:35;5.30;99.90
37646;DHT22;23489;49.600;6.138;2024-01-06T07:45:00;5.30;99.90
37646;DHT22;23489;49.600;6.138;2024-01-06T07:47:27;5.30;99.90
37646;DHT22;23489;49.600;6.138;2024-01-06T07:49:53;5.30;99.90
37646;DHT22;23489;49.600;6.138;2024-01-06T07:52:19;5.30;99.90
37646;DHT22;23489;49.600;6.138;2024-01-06T07:54:45;5.30;99.90
37646;DHT22;23489;49.600;6.138;2024-01-06T07:57:11;5.30;99.90
37646;DHT22;23489;49.600;6.138;2024-01-06T07:59:37;5.30;99.90
37646;DHT22;23489;49.600;6.138;2024-01-06T08:02:03;5.30;99.90
37646;DHT22;23489;49.600;6.138;2024-01-06T08:04:29;5.30;99.90
37646;DHT22;23489;49.600;6.138;2024-01-06T08:06:54;5.30;99.90
37646;DHT22;23489;49.600;6.138;2024-01-06T08:09:20;5.30;99.90
37646;DHT22;23489;49.600;6.138;2024-01-06T08:11:47;5.30;99.90
37646;DHT22;23489;49.600;6.138;2024-01-06T08:14:13;5.20;99.90
37646;DHT22;23489;49.600;6.138;2024-01-06T08:16:39;5.30;99.90
37646;DHT22;23489;49.600;6.138;2024-01-06T08:19:04;5.20;99.90
37646;DHT22;23489;49.600;6.138;2024-01-06T08:21:30;5.30;99.90
37646;DHT22;23489;49.600;6.138;2024-01-06T08:23:56;5.30;99.90
37646;DHT22;23489;49.600;6.138;2024-01-06T08:26:22;5.30;99.90
37646;DHT22;23489;49.600;6.138;2024-01-06T08:28:47;5.30;99.90
37646;DHT22;23489;49.600;6.138;2024-01-06T08:31:13;5.40;99.90
37646;DHT22;23489;49.600;6.138;2024-01-06T08:33:38;5.40;99.90
37646;DHT22;23489;49.600;6.138;2024-01-06T08:36:05;5.30;99.90
37646;DHT22;23489;49.600;6.138;2024-01-06T08:38:31;5.30;99.90
37646;DHT22;23489;49.600;6.138;2024-01-06T08:40:56;5.30;99.90
37646;DHT22;23489;49.600;6.138;2024-01-06T08:43:22;5.30;99.90
37646;DHT22;23489;49.600;6.138;2024-01-06T08:45:47;5.20;99.90
37646;DHT22;23489;49.600;6.138;2024-01-06T08:48:13;5.20;99.90
37646;DHT22;23489;49.600;6.138;2024-01-06T08:50:40;5.20;99.90
37646;DHT22;23489;49.600;6.138;2024-01-06T08:53:06;5.30;99.90
37646;DHT22;23489;49.600;6.138;2024-01-06T08:55:31;5.30;99.90
37646;DHT22;23489;49.600;6.138;2024-01-06T08:57:57;5.30;99.90
37646;DHT22;23489;49.600;6.138;2024-01-06T09:00:23;5.30;99.90
37646;DHT22;23489;49.600;6.138;2024-01-06T09:02:48;5.30;99.90
37646;DHT22;23489;49.600;6.138;2024-01-06T09:05:14;5.20;99.90
37646;DHT22;23489;49.600;6.138;2024-01-06T09:07:40;5.20;99.90
37646;DHT22;23489;49.600;6.138;2024-01-06T09:10:06;5.30;99.90
37646;DHT22;23489;49.600;6.138;2024-01-06T09:12:32;5.30;99.90
37646;DHT22;23489;49.600;6.138;2024-01-06T09:14:58;5.30;99.90
37646;DHT22;23489;49.600;6.138;2024-01-06T09:17:23;5.40;99.90
37646;DHT22;23489;49.600;6.138;2024-01-06T09:19:49;5.40;99.90
37646;DHT22;23489;49.600;6.138;2024-01-06T09:22:15;5.40;99.90
37646;DHT22;23489;49.600;6.138;2024-01-06T09:24:40;5.50;99.90
37646;DHT22;23489;49.600;6.138;2024-01-06T09:27:06;5.60;99.90
37646;DHT22;23489;49.600;6.138;2024-01-06T09:29:31;5.60;99.90
37646;DHT22;23489;49.600;6.138;2024-01-06T09:31:57;5.50;99.90
37646;DHT22;23489;49.600;6.138;2024-01-06T09:34:23;5.60;99.90
37646;DHT22;23489;49.600;6.138;2024-01-06T09:36:48;5.60;99.90
37646;DHT22;23489;49.600;6.138;2024-01-06T09:39:14;5.60;99.90
37646;DHT22;23489;49.600;6.138;2024-01-06T09:41:39;5.60;99.90
37646;DHT22;23489;49.600;6.138;2024-01-06T09:44:05;5.70;99.90
37646;DHT22;23489;49.600;6.138;2024-01-06T09:46:31;5.70;99.90
37646;DHT22;23489;49.600;6.138;2024-01-06T09:48:57;5.70;99.90
37646;DHT22;23489;49.600;6.138;2024-01-06T09:51:24;5.70;99.90
37646;DHT22;23489;49.600;6.138;2024-01-06T09:53:58;5.60;99.90
37646;DHT22;23489;49.600;6.138;2024-01-06T09:56:26;5.60;99.90
37646;DHT22;23489;49.600;6.138;2024-01-06T09:58:51;5.50;99.90
37646;DHT22;23489;49.600;6.138;2024-01-06T10:01:18;5.50;99.90
37646;DHT22;23489;49.600;6.138;2024-01-06T10:03:44;5.40;99.90
37646;DHT22;23489;49.600;6.138;2024-01-06T10:06:11;5.40;99.90
37646;DHT22;23489;49.600;6.138;2024-01-06T10:08:38;5.40;99.90
37646;DHT22;23489;49.600;6.138;2024-01-06T10:11:06;5.50;99.90
37646;DHT22;23489;49.600;6.138;2024-01-06T10:13:33;5.60;99.90
37646;DHT22;23489;49.600;6.138;2024-01-06T10:15:59;5.70;99.90
37646;DHT22;23489;49.600;6.138;2024-01-06T10:18:25;5.70;99.90
37646;DHT22;23489;49.600;6.138;2024-01-06T10:20:52;5.60;99.90
37646;DHT22;23489;49.600;6.138;2024-01-06T10:23:19;5.60;99.90
37646;DHT22;23489;49.600;6.138;2024-01-06T10:25:44;5.70;99.90
37646;DHT22;23489;49.600;6.138;2024-01-06T10:28:13;5.70;99.90
37646;DHT22;23489;49.600;6.138;2024-01-06T10:30:41;5.70;99.90
37646;DHT22;23489;49.600;6.138;2024-01-06T10:33:10;5.70;99.90
37646;DHT22;23489;49.600;6.138;2024-01-06T10:35:36;5.80;99.90
37646;DHT22;23489;49.600;6.138;2024-01-06T10:38:02;5.80;99.90
37646;DHT22;23489;49.600;6.138;2024-01-06T10:40:29;5.80;99.90
37646;DHT22;23489;49.600;6.138;2024-01-06T10:42:55;5.80;99.90
37646;DHT22;23489;49.600;6.138;2024-01-06T10:45:23;5.80;99.90
37646;DHT22;23489;49.600;6.138;2024-01-06T10:47:49;5.80;99.90
37646;DHT22;23489;49.600;6.138;2024-01-06T10:50:18;5.80;99.90
37646;DHT22;23489;49.600;6.138;2024-01-06T10:52:46;5.90;99.90
37646;DHT22;23489;49.600;6.138;2024-01-06T10:55:12;5.90;99.90
37646;DHT22;23489;49.600;6.138;2024-01-06T10:57:43;5.80;99.90
37646;DHT22;23489;49.600;6.138;2024-01-06T11:00:09;5.90;99.90
37646;DHT22;23489;49.600;6.138;2024-01-06T11:02:35;5.90;99.90
37646;DHT22;23489;49.600;6.138;2024-01-06T11:05:02;5.90;99.90
37646;DHT22;23489;49.600;6.138;2024-01-06T11:07:28;6.00;99.90
37646;DHT22;23489;49.600;6.138;2024-01-06T11:09:58;5.90;99.90
37646;DHT22;23489;49.600;6.138;2024-01-06T11:12:25;5.90;99.90
37646;DHT22;23489;49.600;6.138;2024-01-06T11:14:51;5.80;99.90
37646;DHT22;23489;49.600;6.138;2024-01-06T11:17:52;5.80;99.90
37646;DHT22;23489;49.600;6.138;2024-01-06T11:20:19;5.90;99.90
37646;DHT22;23489;49.600;6.138;2024-01-06T11:22:47;6.00;99.90
37646;DHT22;23489;49.600;6.138;2024-01-06T11:25:17;6.00;99.90
37646;DHT22;23489;49.600;6.138;2024-01-06T11:27:45;6.10;99.90
37646;DHT22;23489;49.600;6.138;2024-01-06T11:30:22;6.20;99.90
37646;DHT22;23489;49.600;6.138;2024-01-06T11:32:48;6.10;99.90
37646;DHT22;23489;49.600;6.138;2024-01-06T11:35:18;6.10;99.90
37646;DHT22;23489;49.600;6.138;2024-01-06T11:40:25;6.10;99.90
37646;DHT22;23489;49.600;6.138;2024-01-06T11:43:07;6.20;99.90
37646;DHT22;23489;49.600;6.138;2024-01-06T11:45:34;6.10;99.90
37646;DHT22;23489;49.600;6.138;2024-01-06T11:48:07;6.00;99.90
37646;DHT22;23489;49.600;6.138;2024-01-06T11:50:38;6.10;99.90
37646;DHT22;23489;49.600;6.138;2024-01-06T11:53:05;6.00;99.90
37646;DHT22;23489;49.600;6.138;2024-01-06T11:55:31;6.00;99.90
37646;DHT22;23489;49.600;6.138;2024-01-06T11:58:03;5.90;99.90
37646;DHT22;23489;49.600;6.138;2024-01-06T12:00:30;5.90;99.90
37646;DHT22;23489;49.600;6.138;2024-01-06T12:02:59;6.00;99.90
37646;DHT22;23489;49.600;6.138;2024-01-06T12:05:26;6.00;99.90
37646;DHT22;23489;49.600;6.138;2024-01-06T12:07:57;5.90;99.90
37646;DHT22;23489;49.600;6.138;2024-01-06T12:10:24;5.90;99.90
37646;DHT22;23489;49.600;6.138;2024-01-06T12:13:05;5.90;99.90
37646;DHT22;23489;49.600;6.138;2024-01-06T12:15:33;5.70;99.90
37646;DHT22;23489;49.600;6.138;2024-01-06T12:18:02;5.70;99.90
37646;DHT22;23489;49.600;6.138;2024-01-06T12:20:28;5.70;99.90
37646;DHT22;23489;49.600;6.138;2024-01-06T12:22:55;5.80;99.90
37646;DHT22;23489;49.600;6.138;2024-01-06T12:25:25;5.80;99.90
37646;DHT22;23489;49.600;6.138;2024-01-06T12:27:52;5.90;99.90
37646;DHT22;23489;49.600;6.138;2024-01-06T12:30:21;5.90;99.90
37646;DHT22;23489;49.600;6.138;2024-01-06T12:32:49;6.00;99.90
37646;DHT22;23489;49.600;6.138;2024-01-06T12:35:15;6.00;99.90
37646;DHT22;23489;49.600;6.138;2024-01-06T12:37:42;6.00;99.90
37646;DHT22;23489;49.600;6.138;2024-01-06T12:40:15;6.00;99.90
37646;DHT22;23489;49.600;6.138;2024-01-06T12:42:43;6.10;99.90
37646;DHT22;23489;49.600;6.138;2024-01-06T12:45:08;6.10;99.90
37646;DHT22;23489;49.600;6.138;2024-01-06T12:47:35;6.10;99.90
37646;DHT22;23489;49.600;6.138;2024-01-06T12:50:02;6.10;99.90
37646;DHT22;23489;49.600;6.138;2024-01-06T12:52:30;6.00;99.90
37646;DHT22;23489;49.600;6.138;2024-01-06T12:54:55;5.80;99.90
37646;DHT22;23489;49.600;6.138;2024-01-06T12:57:21;5.90;99.90
37646;DHT22;23489;49.600;6.138;2024-01-06T12:59:47;5.90;99.90
37646;DHT22;23489;49.600;6.138;2024-01-06T13:02:12;5.90;99.90
37646;DHT22;23489;49.600;6.138;2024-01-06T13:04:38;5.90;99.90
37646;DHT22;23489;49.600;6.138;2024-01-06T13:07:04;5.90;99.90
37646;DHT22;23489;49.600;6.138;2024-01-06T13:09:29;5.90;99.90
37646;DHT22;23489;49.600;6.138;2024-01-06T13:11:55;5.90;99.90
37646;DHT22;23489;49.600;6.138;2024-01-06T13:14:26;6.00;99.90
37646;DHT22;23489;49.600;6.138;2024-01-06T13:16:52;6.00;99.90
37646;DHT22;23489;49.600;6.138;2024-01-06T13:19:18;6.00;99.90
37646;DHT22;23489;49.600;6.138;2024-01-06T13:21:44;5.80;99.90
37646;DHT22;23489;49.600;6.138;2024-01-06T13:24:10;5.90;99.90
37646;DHT22;23489;49.600;6.138;2024-01-06T13:26:37;5.70;99.90
37646;DHT22;23489;49.600;6.138;2024-01-06T13:29:03;5.70;99.90
37646;DHT22;23489;49.600;6.138;2024-01-06T13:31:29;5.70;99.90
37646;DHT22;23489;49.600;6.138;2024-01-06T13:33:56;5.80;99.90
37646;DHT22;23489;49.600;6.138;2024-01-06T13:36:22;5.80;99.90
37646;DHT22;23489;49.600;6.138;2024-01-06T13:38:47;5.80;99.90
37646;DHT22;23489;49.600;6.138;2024-01-06T13:41:14;5.80;99.90
37646;DHT22;23489;49.600;6.138;2024-01-06T13:43:40;5.80;99.90
37646;DHT22;23489;49.600;6.138;2024-01-06T13:46:05;5.80;99.90
37646;DHT22;23489;49.600;6.138;2024-01-06T13:48:31;5.70;99.90
37646;DHT22;23489;49.600;6.138;2024-01-06T13:50:57;5.70;99.90
37646;DHT22;23489;49.600;6.138;2024-01-06T13:53:24;5.80;99.90
37646;DHT22;23489;49.600;6.138;2024-01-06T13:55:50;5.80;99.90
37646;DHT22;23489;49.600;6.138;2024-01-06T13:58:15;5.70;99.90
37646;DHT22;23489;49.600;6.138;2024-01-06T14:00:43;5.80;99.90
37646;DHT22;23489;49.600;6.138;2024-01-06T14:03:09;5.70;99.90
37646;DHT22;23489;49.600;6.138;2024-01-06T14:05:35;5.70;99.90
37646;DHT22;23489;49.600;6.138;2024-01-06T14:08:01;5.60;99.90
37646;DHT22;23489;49.600;6.138;2024-01-06T14:10:27;5.70;99.90
37646;DHT22;23489;49.600;6.138;2024-01-06T14:12:53;5.70;99.90
37646;DHT22;23489;49.600;6.138;2024-01-06T14:15:19;5.60;99.90
37646;DHT22;23489;49.600;6.138;2024-01-06T14:17:45;5.60;99.90
37646;DHT22;23489;49.600;6.138;2024-01-06T14:20:15;5.40;99.90
37646;DHT22;23489;49.600;6.138;2024-01-06T14:22:47;5.50;99.90
37646;DHT22;23489;49.600;6.138;2024-01-06T14:25:14;5.40;99.90
37646;DHT22;23489;49.600;6.138;2024-01-06T14:27:40;5.50;99.90
37646;DHT22;23489;49.600;6.138;2024-01-06T14:30:06;5.40;99.90
37646;DHT22;23489;49.600;6.138;2024-01-06T14:32:38;5.30;99.90
37646;DHT22;23489;49.600;6.138;2024-01-06T14:35:07;5.20;99.90
37646;DHT22;23489;49.600;6.138;2024-01-06T14:37:33;5.30;99.90
37646;DHT22;23489;49.600;6.138;2024-01-06T14:39:59;5.30;99.90
37646;DHT22;23489;49.600;6.138;2024-01-06T14:42:30;5.20;99.90
37646;DHT22;23489;49.600;6.138;2024-01-06T14:44:55;5.10;99.90
37646;DHT22;23489;49.600;6.138;2024-01-06T14:47:21;5.10;99.90
37646;DHT22;23489;49.600;6.138;2024-01-06T14:49:47;5.10;99.90
37646;DHT22;23489;49.600;6.138;2024-01-06T14:52:13;5.10;99.90
37646;DHT22;23489;49.600;6.138;2024-01-06T14:54:38;5.10;99.90
37646;DHT22;23489;49.600;6.138;2024-01-06T14:57:04;5.00;99.90
37646;DHT22;23489;49.600;6.138;2024-01-06T14:59:29;4.90;99.90
37646;DHT22;23489;49.600;6.138;2024-01-06T15:01:55;4.90;99.90
37646;DHT22;23489;49.600;6.138;2024-01-06T15:04:21;4.90;99.90
37646;DHT22;23489;49.600;6.138;2024-01-06T15:06:46;4.80;99.90
37646;DHT22;23489;49.600;6.138;2024-01-06T15:09:12;4.80;99.90
37646;DHT22;23489;49.600;6.138;2024-01-06T15:11:38;4.80;99.90
37646;DHT22;23489;49.600;6.138;2024-01-06T15:14:04;4.80;99.90
37646;DHT22;23489;49.600;6.138;2024-01-06T15:16:31;4.80;99.90
37646;DHT22;23489;49.600;6.138;2024-01-06T15:18:56;4.80;99.90
37646;DHT22;23489;49.600;6.138;2024-01-06T15:21:25;4.80;99.90
37646;DHT22;23489;49.600;6.138;2024-01-06T15:23:55;4.80;99.90
37646;DHT22;23489;49.600;6.138;2024-01-06T15:26:22;4.80;99.90
37646;DHT22;23489;49.600;6.138;2024-01-06T15:28:48;4.70;99.90
37646;DHT22;23489;49.600;6.138;2024-01-06T15:31:14;4.80;99.90
37646;DHT22;23489;49.600;6.138;2024-01-06T15:33:40;4.70;99.90
37646;DHT22;23489;49.600;6.138;2024-01-06T15:36:10;4.80;99.90
37646;DHT22;23489;49.600;6.138;2024-01-06T15:38:36;4.80;99.90
37646;DHT22;23489;49.600;6.138;2024-01-06T15:41:02;4.70;99.90
37646;DHT22;23489;49.600;6.138;2024-01-06T15:43:29;4.80;99.90